sensor_id;sensor_type;location;lat;lon;timestamp;temperature;humidity
68826;DHT22;55841;53.392;10.086;2022-08-01T00:00:46;18.70;92.70
68826;DHT22;55841;53.392;10.086;2022-08-01T00:03:11;18.70;93.00
68826;DHT22;55841;53.392;10.086;2022-08-01T00:05:37;18.70;93.00
68826;DHT22;55841;53.392;10.086;2022-08-01T00:08:02;18.70;92.90
68826;DHT22;55841;53.392;10.086;2022-08-01T00:10:28;18.70;93.10
68826;DHT22;55841;53.392;10.086;2022-08-01T00:12:53;18.80;93.10
68826;DHT22;55841;53.392;10.086;2022-08-01T00:15:19;18.80;93.30
68826;DHT22;55841;53.392;10.086;2022-08-01T00:17:45;18.70;93.10
68826;DHT22;55841;53.392;10.086;2022-08-01T00:20:12;18.80;93.30
68826;DHT22;55841;53.392;10.086;2022-08-01T00:22:38;18.80;93.40
68826;DHT22;55841;53.392;10.086;2022-08-01T00:25:05;18.80;93.50
68826;DHT22;55841;53.392;10.086;2022-08-01T00:27:31;18.80;93.40
68826;DHT22;55841;53.392;10.086;2022-08-01T00:29:56;18.80;93.20
68826;DHT22;55841;53.392;10.086;2022-08-01T00:32:22;18.80;93.10
68826;DHT22;55841;53.392;10.086;2022-08-01T00:34:48;18.80;93.30
68826;DHT22;55841;53.392;10.086;2022-08-01T00:37:13;18.80;93.10
68826;DHT22;55841;53.392;10.086;2022-08-01T00:39:39;18.90;93.30
68826;DHT22;55841;53.392;10.086;2022-08-01T00:42:09;18.80;93.00
68826;DHT22;55841;53.392;10.086;2022-08-01T00:44:35;18.80;93.10
68826;DHT22;55841;53.392;10.086;2022-08-01T00:47:00;18.80;93.10
68826;DHT22;55841;53.392;10.086;2022-08-01T00:49:27;18.90;93.30
68826;DHT22;55841;53.392;10.086;2022-08-01T00:51:53;18.90;93.10
68826;DHT22;55841;53.392;10.086;2022-08-01T00:54:18;18.80;93.10
68826;DHT22;55841;53.392;10.086;2022-08-01T00:56:44;18.80;92.90
68826;DHT22;55841;53.392;10.086;2022-08-01T00:59:11;18.80;92.80
68826;DHT22;55841;53.392;10.086;2022-08-01T01:01:37;18.80;92.90
68826;DHT22;55841;53.392;10.086;2022-08-01T01:04:03;18.80;92.90
68826;DHT22;55841;53.392;10.086;2022-08-01T01:06:59;18.80;92.80
68826;DHT22;55841;53.392;10.086;2022-08-01T01:12:29;18.80;92.80
68826;DHT22;55841;53.392;10.086;2022-08-01T01:15:04;18.90;92.70
68826;DHT22;55841;53.392;10.086;2022-08-01T01:18:00;18.90;92.40
68826;DHT22;55841;53.392;10.086;2022-08-01T01:20:34;18.90;92.70
68826;DHT22;55841;53.392;10.086;2022-08-01T01:26:20;18.90;92.20
68826;DHT22;55841;53.392;10.086;2022-08-01T01:29:15;18.90;92.40
68826;DHT22;55841;53.392;10.086;2022-08-01T01:31:48;18.90;92.40
68826;DHT22;55841;53.392;10.086;2022-08-01T01:34:17;18.90;92.70
68826;DHT22;55841;53.392;10.086;2022-08-01T01:36:44;18.90;92.50
68826;DHT22;55841;53.392;10.086;2022-08-01T01:39:12;18.80;92.10
68826;DHT22;55841;53.392;10.086;2022-08-01T01:41:38;18.80;92.40
68826;DHT22;55841;53.392;10.086;2022-08-01T01:44:05;18.80;92.40
68826;DHT22;55841;53.392;10.086;2022-08-01T01:46:32;18.80;92.30
68826;DHT22;55841;53.392;10.086;2022-08-01T01:48:58;18.80;92.20
68826;DHT22;55841;53.392;10.086;2022-08-01T01:51:26;18.80;92.40
68826;DHT22;55841;53.392;10.086;2022-08-01T01:53:54;18.80;92.60
68826;DHT22;55841;53.392;10.086;2022-08-01T01:56:20;18.80;92.50
68826;DHT22;55841;53.392;10.086;2022-08-01T01:58:51;18.70;92.40
68826;DHT22;55841;53.392;10.086;2022-08-01T02:01:18;18.80;92.30
68826;DHT22;55841;53.392;10.086;2022-08-01T02:03:45;18.70;92.20
68826;DHT22;55841;53.392;10.086;2022-08-01T02:06:13;18.70;91.70
68826;DHT22;55841;53.392;10.086;2022-08-01T02:08:42;18.70;91.70
68826;DHT22;55841;53.392;10.086;2022-08-01T02:11:07;18.60;91.50
68826;DHT22;55841;53.392;10.086;2022-08-01T02:13:34;18.60;91.70
68826;DHT22;55841;53.392;10.086;2022-08-01T02:16:03;18.60;91.30
68826;DHT22;55841;53.392;10.086;2022-08-01T02:18:29;18.60;91.50
68826;DHT22;55841;53.392;10.086;2022-08-01T02:20:55;18.60;91.50
68826;DHT22;55841;53.392;10.086;2022-08-01T02:23:24;18.60;91.40
68826;DHT22;55841;53.392;10.086;2022-08-01T02:25:54;18.50;91.70
68826;DHT22;55841;53.392;10.086;2022-08-01T02:28:25;18.60;91.70
68826;DHT22;55841;53.392;10.086;2022-08-01T02:30:59;18.50;91.90
68826;DHT22;55841;53.392;10.086;2022-08-01T02:33:35;18.60;91.60
68826;DHT22;55841;53.392;10.086;2022-08-01T02:36:03;18.50;91.70
68826;DHT22;55841;53.392;10.086;2022-08-01T02:38:32;18.50;91.50
68826;DHT22;55841;53.392;10.086;2022-08-01T02:40:59;18.50;91.40
68826;DHT22;55841;53.392;10.086;2022-08-01T02:43:26;18.50;91.50
68826;DHT22;55841;53.392;10.086;2022-08-01T02:45:58;18.40;91.40
68826;DHT22;55841;53.392;10.086;2022-08-01T02:48:26;18.40;91.80
68826;DHT22;55841;53.392;10.086;2022-08-01T02:50:55;18.40;91.50
68826;DHT22;55841;53.392;10.086;2022-08-01T02:53:22;18.40;91.70
68826;DHT22;55841;53.392;10.086;2022-08-01T02:55:48;18.40;91.90
68826;DHT22;55841;53.392;10.086;2022-08-01T02:58:16;18.30;91.90
68826;DHT22;55841;53.392;10.086;2022-08-01T03:00:43;18.30;92.00
68826;DHT22;55841;53.392;10.086;2022-08-01T03:03:10;18.30;92.20
68826;DHT22;55841;53.392;10.086;2022-08-01T03:05:36;18.30;92.40
68826;DHT22;55841;53.392;10.086;2022-08-01T03:08:03;18.30;92.00
68826;DHT22;55841;53.392;10.086;2022-08-01T03:10:30;18.30;92.20
68826;DHT22;55841;53.392;10.086;2022-08-01T03:12:59;18.30;92.10
68826;DHT22;55841;53.392;10.086;2022-08-01T03:15:27;18.30;92.30
68826;DHT22;55841;53.392;10.086;2022-08-01T03:17:55;18.30;92.20
68826;DHT22;55841;53.392;10.086;2022-08-01T03:20:21;18.30;91.90
68826;DHT22;55841;53.392;10.086;2022-08-01T03:22:48;18.30;92.10
68826;DHT22;55841;53.392;10.086;2022-08-01T03:25:15;18.40;92.10
68826;DHT22;55841;53.392;10.086;2022-08-01T03:27:43;18.40;92.20
68826;DHT22;55841;53.392;10.086;2022-08-01T03:30:11;18.40;91.80
68826;DHT22;55841;53.392;10.086;2022-08-01T03:32:38;18.30;91.90
68826;DHT22;55841;53.392;10.086;2022-08-01T03:35:04;18.30;92.00
68826;DHT22;55841;53.392;10.086;2022-08-01T03:37:41;18.30;91.90
68826;DHT22;55841;53.392;10.086;2022-08-01T03:40:17;18.30;92.30
68826;DHT22;55841;53.392;10.086;2022-08-01T03:42:48;18.30;92.30
68826;DHT22;55841;53.392;10.086;2022-08-01T03:45:36;18.30;92.30
68826;DHT22;55841;53.392;10.086;2022-08-01T03:48:08;18.20;92.00
68826;DHT22;55841;53.392;10.086;2022-08-01T03:50:34;18.30;92.20
68826;DHT22;55841;53.392;10.086;2022-08-01T03:53:02;18.30;92.60
68826;DHT22;55841;53.392;10.086;2022-08-01T03:55:30;18.30;92.10
68826;DHT22;55841;53.392;10.086;2022-08-01T03:57:56;18.30;92.10
68826;DHT22;55841;53.392;10.086;2022-08-01T04:00:23;18.30;92.00
68826;DHT22;55841;53.392;10.086;2022-08-01T04:02:49;18.30;91.80
68826;DHT22;55841;53.392;10.086;2022-08-01T04:05:16;18.30;91.70
68826;DHT22;55841;53.392;10.086;2022-08-01T04:07:46;18.40;91.80
68826;DHT22;55841;53.392;10.086;2022-08-01T04:10:12;18.30;91.70
68826;DHT22;55841;53.392;10.086;2022-08-01T04:12:38;18.40;91.90
68826;DHT22;55841;53.392;10.086;2022-08-01T04:15:04;18.40;91.90
68826;DHT22;55841;53.392;10.086;2022-08-01T04:17:30;18.40;91.60
68826;DHT22;55841;53.392;10.086;2022-08-01T04:19:56;18.40;91.60
68826;DHT22;55841;53.392;10.086;2022-08-01T04:22:21;18.40;91.80
68826;DHT22;55841;53.392;10.086;2022-08-01T04:24:48;18.40;91.70
68826;DHT22;55841;53.392;10.086;2022-08-01T04:27:21;18.40;91.70
68826;DHT22;55841;53.392;10.086;2022-08-01T04:29:48;18.40;91.80
68826;DHT22;55841;53.392;10.086;2022-08-01T04:32:15;18.40;91.50
68826;DHT22;55841;53.392;10.086;2022-08-01T04:34:41;18.40;91.60
68826;DHT22;55841;53.392;10.086;2022-08-01T04:37:10;18.40;91.70
68826;DHT22;55841;53.392;10.086;2022-08-01T04:39:37;18.30;91.30
68826;DHT22;55841;53.392;10.086;2022-08-01T04:42:04;18.30;91.50
68826;DHT22;55841;53.392;10.086;2022-08-01T04:44:31;18.30;91.60
68826;DHT22;55841;53.392;10.086;2022-08-01T04:46:59;18.30;91.30
68826;DHT22;55841;53.392;10.086;2022-08-01T04:49:25;18.30;91.40
68826;DHT22;55841;53.392;10.086;2022-08-01T04:51:52;18.30;91.10
68826;DHT22;55841;53.392;10.086;2022-08-01T04:54:18;18.30;91.30
68826;DHT22;55841;53.392;10.086;2022-08-01T04:56:43;18.30;91.70
68826;DHT22;55841;53.392;10.086;2022-08-01T04:59:09;18.40;91.30
68826;DHT22;55841;53.392;10.086;2022-08-01T05:01:35;18.40;91.00
68826;DHT22;55841;53.392;10.086;2022-08-01T05:04:00;18.40;90.40
68826;DHT22;55841;53.392;10.086;2022-08-01T05:06:26;18.40;90.30
68826;DHT22;55841;53.392;10.086;2022-08-01T05:08:51;18.40;90.60
68826;DHT22;55841;53.392;10.086;2022-08-01T05:11:17;18.40;90.50
68826;DHT22;55841;53.392;10.086;2022-08-01T05:13:42;18.40;90.50
68826;DHT22;55841;53.392;10.086;2022-08-01T05:16:08;18.40;90.70
68826;DHT22;55841;53.392;10.086;2022-08-01T05:18:33;18.40;91.40
68826;DHT22;55841;53.392;10.086;2022-08-01T05:20:59;18.40;91.70
68826;DHT22;55841;53.392;10.086;2022-08-01T05:23:24;18.30;91.80
68826;DHT22;55841;53.392;10.086;2022-08-01T05:25:50;18.30;92.10
68826;DHT22;55841;53.392;10.086;2022-08-01T05:28:15;18.30;91.90
68826;DHT22;55841;53.392;10.086;2022-08-01T05:30:41;18.30;92.20
68826;DHT22;55841;53.392;10.086;2022-08-01T05:33:07;18.30;92.60
68826;DHT22;55841;53.392;10.086;2022-08-01T05:35:32;18.30;92.30
68826;DHT22;55841;53.392;10.086;2022-08-01T05:37:58;18.30;92.80
68826;DHT22;55841;53.392;10.086;2022-08-01T05:40:23;18.40;92.70
68826;DHT22;55841;53.392;10.086;2022-08-01T05:42:49;18.40;92.50
68826;DHT22;55841;53.392;10.086;2022-08-01T05:45:14;18.40;92.90
68826;DHT22;55841;53.392;10.086;2022-08-01T05:47:40;18.40;92.90
68826;DHT22;55841;53.392;10.086;2022-08-01T05:50:05;18.40;92.70
68826;DHT22;55841;53.392;10.086;2022-08-01T05:52:31;18.40;92.60
68826;DHT22;55841;53.392;10.086;2022-08-01T05:54:57;18.40;92.60
68826;DHT22;55841;53.392;10.086;2022-08-01T05:57:22;18.50;92.40
68826;DHT22;55841;53.392;10.086;2022-08-01T05:59:48;18.50;92.20
68826;DHT22;55841;53.392;10.086;2022-08-01T06:02:13;18.50;91.90
68826;DHT22;55841;53.392;10.086;2022-08-01T06:04:39;18.50;91.70
68826;DHT22;55841;53.392;10.086;2022-08-01T06:07:04;18.50;92.20
68826;DHT22;55841;53.392;10.086;2022-08-01T06:09:30;18.60;92.00
68826;DHT22;55841;53.392;10.086;2022-08-01T06:11:55;18.60;91.40
68826;DHT22;55841;53.392;10.086;2022-08-01T06:14:21;18.60;91.80
68826;DHT22;55841;53.392;10.086;2022-08-01T06:47:02;-50.00;1.00
68826;DHT22;55841;53.392;10.086;2022-08-01T06:49:30;-50.00;1.00
68826;DHT22;55841;53.392;10.086;2022-08-01T06:52:36;-50.00;1.00
68826;DHT22;55841;53.392;10.086;2022-08-01T07:09:27;19.10;86.70
68826;DHT22;55841;53.392;10.086;2022-08-01T07:12:56;19.10;87.10
68826;DHT22;55841;53.392;10.086;2022-08-01T07:15:45;-50.00;1.00
68826;DHT22;55841;53.392;10.086;2022-08-01T07:19:35;18.90;85.20
68826;DHT22;55841;53.392;10.086;2022-08-01T07:33:11;18.70;87.30
68826;DHT22;55841;53.392;10.086;2022-08-01T07:50:04;19.10;84.80
68826;DHT22;55841;53.392;10.086;2022-08-01T07:52:31;19.10;84.50
68826;DHT22;55841;53.392;10.086;2022-08-01T07:54:57;19.00;84.80
68826;DHT22;55841;53.392;10.086;2022-08-01T07:57:24;-50.00;1.00
68826;DHT22;55841;53.392;10.086;2022-08-01T07:59:49;19.00;83.80
68826;DHT22;55841;53.392;10.086;2022-08-01T08:02:15;19.00;83.50
68826;DHT22;55841;53.392;10.086;2022-08-01T08:04:41;19.00;84.10
68826;DHT22;55841;53.392;10.086;2022-08-01T08:07:06;19.00;82.80
68826;DHT22;55841;53.392;10.086;2022-08-01T08:09:32;19.00;82.70
68826;DHT22;55841;53.392;10.086;2022-08-01T08:11:57;19.00;82.00
68826;DHT22;55841;53.392;10.086;2022-08-01T08:14:23;19.00;82.40
68826;DHT22;55841;53.392;10.086;2022-08-01T08:16:49;19.10;82.80
68826;DHT22;55841;53.392;10.086;2022-08-01T08:19:15;19.20;81.30
68826;DHT22;55841;53.392;10.086;2022-08-01T08:21:41;19.20;80.80
68826;DHT22;55841;53.392;10.086;2022-08-01T08:24:07;19.10;80.80
68826;DHT22;55841;53.392;10.086;2022-08-01T08:26:33;19.10;80.90
68826;DHT22;55841;53.392;10.086;2022-08-01T08:28:59;19.30;81.60
68826;DHT22;55841;53.392;10.086;2022-08-01T08:31:24;19.50;80.00
68826;DHT22;55841;53.392;10.086;2022-08-01T08:33:50;19.70;79.20
68826;DHT22;55841;53.392;10.086;2022-08-01T08:36:16;19.70;79.10
68826;DHT22;55841;53.392;10.086;2022-08-01T08:38:41;19.80;78.70
68826;DHT22;55841;53.392;10.086;2022-08-01T08:41:08;19.90;78.70
68826;DHT22;55841;53.392;10.086;2022-08-01T08:43:35;19.90;77.60
68826;DHT22;55841;53.392;10.086;2022-08-01T08:46:01;19.90;78.40
68826;DHT22;55841;53.392;10.086;2022-08-01T08:48:27;19.90;78.80
68826;DHT22;55841;53.392;10.086;2022-08-01T08:50:53;19.90;78.40
68826;DHT22;55841;53.392;10.086;2022-08-01T08:53:18;19.90;77.10
68826;DHT22;55841;53.392;10.086;2022-08-01T08:55:44;19.90;76.30
68826;DHT22;55841;53.392;10.086;2022-08-01T08:58:12;19.90;76.20
68826;DHT22;55841;53.392;10.086;2022-08-01T09:00:39;19.90;76.10
68826;DHT22;55841;53.392;10.086;2022-08-01T09:03:05;19.90;77.00
68826;DHT22;55841;53.392;10.086;2022-08-01T09:05:30;19.80;75.10
68826;DHT22;55841;53.392;10.086;2022-08-01T09:07:56;19.80;74.30
68826;DHT22;55841;53.392;10.086;2022-08-01T09:10:22;19.80;74.90
68826;DHT22;55841;53.392;10.086;2022-08-01T09:13:13;20.00;73.80
68826;DHT22;55841;53.392;10.086;2022-08-01T09:15:48;20.30;70.70
68826;DHT22;55841;53.392;10.086;2022-08-01T09:18:37;20.50;68.50
68826;DHT22;55841;53.392;10.086;2022-08-01T09:23:38;20.90;67.70
68826;DHT22;55841;53.392;10.086;2022-08-01T09:26:08;-50.00;1.00
68826;DHT22;55841;53.392;10.086;2022-08-01T09:28:34;20.80;68.60
68826;DHT22;55841;53.392;10.086;2022-08-01T09:31:06;-50.00;1.00
68826;DHT22;55841;53.392;10.086;2022-08-01T09:33:58;-50.00;1.00
68826;DHT22;55841;53.392;10.086;2022-08-01T09:37:00;21.20;67.60
68826;DHT22;55841;53.392;10.086;2022-08-01T09:39:28;21.10;68.40
68826;DHT22;55841;53.392;10.086;2022-08-01T09:41:57;21.00;66.10
68826;DHT22;55841;53.392;10.086;2022-08-01T09:44:40;21.00;66.30
68826;DHT22;55841;53.392;10.086;2022-08-01T09:47:06;-50.00;1.00
68826;DHT22;55841;53.392;10.086;2022-08-01T09:49:35;21.50;65.80
68826;DHT22;55841;53.392;10.086;2022-08-01T09:52:16;-50.00;1.00
68826;DHT22;55841;53.392;10.086;2022-08-01T09:54:44;21.70;66.10
68826;DHT22;55841;53.392;10.086;2022-08-01T09:57:28;-50.00;1.00
68826;DHT22;55841;53.392;10.086;2022-08-01T09:59:59;-50.00;1.00
68826;DHT22;55841;53.392;10.086;2022-08-01T10:02:36;-50.00;1.00
68826;DHT22;55841;53.392;10.086;2022-08-01T10:05:08;-50.00;1.00
68826;DHT22;55841;53.392;10.086;2022-08-01T10:07:36;21.70;66.60
68826;DHT22;55841;53.392;10.086;2022-08-01T10:10:15;-50.00;1.00
68826;DHT22;55841;53.392;10.086;2022-08-01T10:12:42;21.40;66.30
68826;DHT22;55841;53.392;10.086;2022-08-01T10:15:08;21.60;66.30
68826;DHT22;55841;53.392;10.086;2022-08-01T10:24:06;22.20;65.20
68826;DHT22;55841;53.392;10.086;2022-08-01T10:27:22;22.20;61.90
68826;DHT22;55841;53.392;10.086;2022-08-01T10:46:55;23.50;58.60
68826;DHT22;55841;53.392;10.086;2022-08-01T10:50:19;23.30;54.90
68826;DHT22;55841;53.392;10.086;2022-08-01T11:07:47;23.40;55.20
68826;DHT22;55841;53.392;10.086;2022-08-01T11:10:37;23.40;56.10
68826;DHT22;55841;53.392;10.086;2022-08-01T11:13:03;-50.00;1.00
68826;DHT22;55841;53.392;10.086;2022-08-01T11:15:28;23.60;54.00
68826;DHT22;55841;53.392;10.086;2022-08-01T11:17:57;23.80;53.10
68826;DHT22;55841;53.392;10.086;2022-08-01T11:20:24;24.00;52.30
68826;DHT22;55841;53.392;10.086;2022-08-01T11:28:20;24.60;50.50
68826;DHT22;55841;53.392;10.086;2022-08-01T11:30:56;-50.00;1.00
68826;DHT22;55841;53.392;10.086;2022-08-01T11:41:24;24.30;51.60
68826;DHT22;55841;53.392;10.086;2022-08-01T11:54:28;24.10;50.60
68826;DHT22;55841;53.392;10.086;2022-08-01T11:56:56;24.40;51.00
68826;DHT22;55841;53.392;10.086;2022-08-01T11:59:22;24.50;52.10
68826;DHT22;55841;53.392;10.086;2022-08-01T12:01:50;24.30;48.40
68826;DHT22;55841;53.392;10.086;2022-08-01T12:04:17;24.20;49.20
68826;DHT22;55841;53.392;10.086;2022-08-01T12:06:42;24.30;50.20
68826;DHT22;55841;53.392;10.086;2022-08-01T12:12:22;24.80;50.00
68826;DHT22;55841;53.392;10.086;2022-08-01T12:14:56;24.90;49.50
68826;DHT22;55841;53.392;10.086;2022-08-01T12:17:37;24.90;48.30
68826;DHT22;55841;53.392;10.086;2022-08-01T12:20:08;25.00;48.10
68826;DHT22;55841;53.392;10.086;2022-08-01T12:22:35;25.30;47.30
68826;DHT22;55841;53.392;10.086;2022-08-01T12:27:34;24.70;47.30
68826;DHT22;55841;53.392;10.086;2022-08-01T12:30:00;25.00;49.90
68826;DHT22;55841;53.392;10.086;2022-08-01T12:32:27;25.20;48.10
68826;DHT22;55841;53.392;10.086;2022-08-01T12:34:54;25.40;47.00
68826;DHT22;55841;53.392;10.086;2022-08-01T12:37:23;25.40;47.10
68826;DHT22;55841;53.392;10.086;2022-08-01T12:39:50;25.60;47.40
68826;DHT22;55841;53.392;10.086;2022-08-01T12:42:16;25.80;44.70
68826;DHT22;55841;53.392;10.086;2022-08-01T12:44:41;25.40;46.30
68826;DHT22;55841;53.392;10.086;2022-08-01T12:47:08;25.30;46.20
68826;DHT22;55841;53.392;10.086;2022-08-01T12:49:37;25.10;46.70
68826;DHT22;55841;53.392;10.086;2022-08-01T12:52:04;25.20;47.40
68826;DHT22;55841;53.392;10.086;2022-08-01T12:54:30;25.50;49.00
68826;DHT22;55841;53.392;10.086;2022-08-01T12:56:55;25.50;45.90
68826;DHT22;55841;53.392;10.086;2022-08-01T12:59:35;25.60;46.80
68826;DHT22;55841;53.392;10.086;2022-08-01T13:02:08;25.90;44.90
68826;DHT22;55841;53.392;10.086;2022-08-01T13:04:49;25.80;43.90
68826;DHT22;55841;53.392;10.086;2022-08-01T13:07:19;25.60;45.00
68826;DHT22;55841;53.392;10.086;2022-08-01T13:09:50;25.20;46.30
68826;DHT22;55841;53.392;10.086;2022-08-01T13:12:28;24.80;45.90
68826;DHT22;55841;53.392;10.086;2022-08-01T13:15:33;24.70;45.80
68826;DHT22;55841;53.392;10.086;2022-08-01T13:18:00;24.90;46.80
68826;DHT22;55841;53.392;10.086;2022-08-01T13:20:33;24.80;47.10
68826;DHT22;55841;53.392;10.086;2022-08-01T13:23:14;25.00;46.40
68826;DHT22;55841;53.392;10.086;2022-08-01T13:26:09;24.90;45.80
68826;DHT22;55841;53.392;10.086;2022-08-01T13:28:34;24.70;46.00
68826;DHT22;55841;53.392;10.086;2022-08-01T13:31:07;24.90;46.40
68826;DHT22;55841;53.392;10.086;2022-08-01T13:33:44;25.10;47.00
68826;DHT22;55841;53.392;10.086;2022-08-01T13:36:52;25.20;47.60
68826;DHT22;55841;53.392;10.086;2022-08-01T13:39:44;25.50;45.40
68826;DHT22;55841;53.392;10.086;2022-08-01T13:45:53;25.80;44.70
68826;DHT22;55841;53.392;10.086;2022-08-01T13:48:18;25.30;45.90
68826;DHT22;55841;53.392;10.086;2022-08-01T13:50:44;25.00;45.00
68826;DHT22;55841;53.392;10.086;2022-08-01T13:53:10;25.10;46.70
68826;DHT22;55841;53.392;10.086;2022-08-01T13:55:46;25.00;46.30
68826;DHT22;55841;53.392;10.086;2022-08-01T13:58:11;25.50;46.10
68826;DHT22;55841;53.392;10.086;2022-08-01T14:00:47;26.00;47.50
68826;DHT22;55841;53.392;10.086;2022-08-01T14:03:26;-50.00;1.00
68826;DHT22;55841;53.392;10.086;2022-08-01T14:06:04;26.50;43.20
68826;DHT22;55841;53.392;10.086;2022-08-01T14:08:30;25.90;45.60
68826;DHT22;55841;53.392;10.086;2022-08-01T14:10:56;-50.00;1.00
68826;DHT22;55841;53.392;10.086;2022-08-01T14:13:39;25.20;44.80
68826;DHT22;55841;53.392;10.086;2022-08-01T14:16:13;25.10;47.50
68826;DHT22;55841;53.392;10.086;2022-08-01T14:18:39;25.30;47.70
68826;DHT22;55841;53.392;10.086;2022-08-01T14:21:07;25.30;44.50
68826;DHT22;55841;53.392;10.086;2022-08-01T14:26:50;24.70;46.40
68826;DHT22;55841;53.392;10.086;2022-08-01T14:29:16;24.30;45.90
68826;DHT22;55841;53.392;10.086;2022-08-01T14:31:41;24.10;46.90
68826;DHT22;55841;53.392;10.086;2022-08-01T14:34:07;24.10;46.00
68826;DHT22;55841;53.392;10.086;2022-08-01T14:36:32;24.10;46.40
68826;DHT22;55841;53.392;10.086;2022-08-01T14:39:01;24.30;46.30
68826;DHT22;55841;53.392;10.086;2022-08-01T14:41:29;24.50;46.00
68826;DHT22;55841;53.392;10.086;2022-08-01T14:43:55;24.40;45.90
68826;DHT22;55841;53.392;10.086;2022-08-01T14:46:20;24.50;46.00
68826;DHT22;55841;53.392;10.086;2022-08-01T14:48:49;24.80;44.90
68826;DHT22;55841;53.392;10.086;2022-08-01T14:51:14;24.90;45.00
68826;DHT22;55841;53.392;10.086;2022-08-01T14:53:40;25.00;45.20
68826;DHT22;55841;53.392;10.086;2022-08-01T14:56:06;25.30;45.50
68826;DHT22;55841;53.392;10.086;2022-08-01T14:58:32;25.30;44.60
68826;DHT22;55841;53.392;10.086;2022-08-01T15:00:58;25.20;43.90
68826;DHT22;55841;53.392;10.086;2022-08-01T15:03:23;25.10;45.00
68826;DHT22;55841;53.392;10.086;2022-08-01T15:05:48;25.40;44.80
68826;DHT22;55841;53.392;10.086;2022-08-01T15:08:14;25.40;44.40
68826;DHT22;55841;53.392;10.086;2022-08-01T15:10:39;25.10;44.40
68826;DHT22;55841;53.392;10.086;2022-08-01T15:13:05;24.70;44.30
68826;DHT22;55841;53.392;10.086;2022-08-01T15:15:31;24.50;45.60
68826;DHT22;55841;53.392;10.086;2022-08-01T15:17:57;24.40;46.00
68826;DHT22;55841;53.392;10.086;2022-08-01T15:20:23;24.30;45.00
68826;DHT22;55841;53.392;10.086;2022-08-01T15:22:48;24.30;46.30
68826;DHT22;55841;53.392;10.086;2022-08-01T15:25:14;24.50;46.80
68826;DHT22;55841;53.392;10.086;2022-08-01T15:27:40;24.70;45.70
68826;DHT22;55841;53.392;10.086;2022-08-01T15:30:06;24.60;44.70
68826;DHT22;55841;53.392;10.086;2022-08-01T15:32:31;24.30;45.30
68826;DHT22;55841;53.392;10.086;2022-08-01T15:34:57;24.20;46.70
68826;DHT22;55841;53.392;10.086;2022-08-01T15:37:22;24.30;46.00
68826;DHT22;55841;53.392;10.086;2022-08-01T15:39:48;24.10;46.10
68826;DHT22;55841;53.392;10.086;2022-08-01T15:42:14;24.20;47.00
68826;DHT22;55841;53.392;10.086;2022-08-01T15:44:41;24.40;46.30
68826;DHT22;55841;53.392;10.086;2022-08-01T15:47:07;24.40;45.70
68826;DHT22;55841;53.392;10.086;2022-08-01T15:49:33;24.20;45.40
68826;DHT22;55841;53.392;10.086;2022-08-01T15:51:59;23.60;45.90
68826;DHT22;55841;53.392;10.086;2022-08-01T15:54:24;23.00;47.30
68826;DHT22;55841;53.392;10.086;2022-08-01T15:56:50;22.70;47.40
68826;DHT22;55841;53.392;10.086;2022-08-01T15:59:16;22.60;48.00
68826;DHT22;55841;53.392;10.086;2022-08-01T16:01:41;22.60;46.80
68826;DHT22;55841;53.392;10.086;2022-08-01T16:04:07;22.30;47.40
68826;DHT22;55841;53.392;10.086;2022-08-01T16:06:34;22.20;47.80
68826;DHT22;55841;53.392;10.086;2022-08-01T16:08:59;22.40;46.90
68826;DHT22;55841;53.392;10.086;2022-08-01T16:11:25;22.80;46.30
68826;DHT22;55841;53.392;10.086;2022-08-01T16:13:51;22.70;46.70
68826;DHT22;55841;53.392;10.086;2022-08-01T16:16:16;23.00;45.80
68826;DHT22;55841;53.392;10.086;2022-08-01T16:18:42;23.20;44.20
68826;DHT22;55841;53.392;10.086;2022-08-01T16:21:08;23.20;44.30
68826;DHT22;55841;53.392;10.086;2022-08-01T16:23:33;23.00;45.40
68826;DHT22;55841;53.392;10.086;2022-08-01T16:26:02;23.20;46.30
68826;DHT22;55841;53.392;10.086;2022-08-01T16:28:27;23.60;44.30
68826;DHT22;55841;53.392;10.086;2022-08-01T16:30:53;23.90;45.30
68826;DHT22;55841;53.392;10.086;2022-08-01T16:33:18;24.30;43.30
68826;DHT22;55841;53.392;10.086;2022-08-01T16:35:44;24.10;43.80
68826;DHT22;55841;53.392;10.086;2022-08-01T16:38:10;23.90;43.50
68826;DHT22;55841;53.392;10.086;2022-08-01T16:40:36;23.80;43.30
68826;DHT22;55841;53.392;10.086;2022-08-01T16:43:01;23.60;44.30
68826;DHT22;55841;53.392;10.086;2022-08-01T16:45:27;23.70;44.10
68826;DHT22;55841;53.392;10.086;2022-08-01T16:47:53;24.00;42.90
68826;DHT22;55841;53.392;10.086;2022-08-01T16:50:18;24.00;42.70
68826;DHT22;55841;53.392;10.086;2022-08-01T16:52:43;24.20;42.60
68826;DHT22;55841;53.392;10.086;2022-08-01T16:55:10;24.50;42.50
68826;DHT22;55841;53.392;10.086;2022-08-01T16:57:36;24.30;42.10
68826;DHT22;55841;53.392;10.086;2022-08-01T17:00:07;24.10;43.00
68826;DHT22;55841;53.392;10.086;2022-08-01T17:02:34;24.30;42.50
68826;DHT22;55841;53.392;10.086;2022-08-01T17:05:00;24.30;42.30
68826;DHT22;55841;53.392;10.086;2022-08-01T17:07:26;24.70;43.00
68826;DHT22;55841;53.392;10.086;2022-08-01T17:09:51;24.60;42.70
68826;DHT22;55841;53.392;10.086;2022-08-01T17:12:17;24.60;43.40
68826;DHT22;55841;53.392;10.086;2022-08-01T17:14:42;24.50;42.50
68826;DHT22;55841;53.392;10.086;2022-08-01T17:17:08;23.90;43.90
68826;DHT22;55841;53.392;10.086;2022-08-01T17:19:33;23.80;44.50
68826;DHT22;55841;53.392;10.086;2022-08-01T17:21:59;24.10;44.40
68826;DHT22;55841;53.392;10.086;2022-08-01T17:24:25;24.20;44.80
68826;DHT22;55841;53.392;10.086;2022-08-01T17:26:50;24.30;44.50
68826;DHT22;55841;53.392;10.086;2022-08-01T17:29:16;24.30;44.70
68826;DHT22;55841;53.392;10.086;2022-08-01T17:31:42;23.90;44.90
68826;DHT22;55841;53.392;10.086;2022-08-01T17:34:07;23.50;45.80
68826;DHT22;55841;53.392;10.086;2022-08-01T17:36:33;23.20;46.20
68826;DHT22;55841;53.392;10.086;2022-08-01T17:38:58;22.80;46.80
68826;DHT22;55841;53.392;10.086;2022-08-01T17:41:24;22.30;47.60
68826;DHT22;55841;53.392;10.086;2022-08-01T17:43:50;21.90;48.20
68826;DHT22;55841;53.392;10.086;2022-08-01T17:46:16;21.70;49.40
68826;DHT22;55841;53.392;10.086;2022-08-01T17:48:41;21.40;50.00
68826;DHT22;55841;53.392;10.086;2022-08-01T17:51:07;21.10;50.30
68826;DHT22;55841;53.392;10.086;2022-08-01T17:53:32;21.00;50.60
68826;DHT22;55841;53.392;10.086;2022-08-01T17:55:58;20.90;51.20
68826;DHT22;55841;53.392;10.086;2022-08-01T17:58:24;20.80;51.90
68826;DHT22;55841;53.392;10.086;2022-08-01T18:00:50;20.60;52.00